< < Back
Terminal Aerodrome Forecast


Current Version              Previous Versions:   1  2  3  4  5  6  7  8  9  

Terminal Aerodrome Forecast

105
FTUS42 KJAX 261345 CCA
TAFJAX
TAF COR
KJAX 261345Z 2614/2712 19004KT 5SM BR VCSH SCT005 BKN080 OVC200
     FM261500 20005KT P6SM VCSH SCT025 BKN060 OVC150
      TEMPO 2615/2618 5SM SHRA BR BKN025
     FM261800 19008KT P6SM VCSH SCT030 BKN050
     FM270200 21007KT P6SM SCT030 BKN120=



Latest METAR

815
SAUS80 KWBC 262200 CCA
MTRJAX
METAR KJAX 262156Z 12006KT 10SM TS SCT032CB BKN075 OVC200 23/19 A2986
RMK AO2 RAB18E32 TSB50 SLP111 OCNL LTGICCG VC W TS VC W MOV
NE P0000 T02280194


USA.gov is the U.S. government's official web portal to all federal, state and local government web resources and services.